createdAt,value
2017-09-03T00:00:11.502Z,8.90
2017-09-03T00:02:38.139Z,10.20
2017-09-03T00:05:04.767Z,9.77
2017-09-03T00:07:31.378Z,9.23
2017-09-03T00:09:58.012Z,10.00
2017-09-03T00:12:24.647Z,11.33
2017-09-03T00:14:51.281Z,10.40
2017-09-03T00:17:17.909Z,11.00
2017-09-03T00:19:44.516Z,10.33
2017-09-03T00:22:11.142Z,13.53
2017-09-03T00:24:37.778Z,10.27
2017-09-03T00:27:04.409Z,11.40
2017-09-03T00:29:31.009Z,6.23
2017-09-03T00:31:57.671Z,7.97
2017-09-03T00:34:24.302Z,12.80
2017-09-03T00:36:50.915Z,9.50
2017-09-03T00:39:17.542Z,11.50
2017-09-03T00:41:44.573Z,11.63
2017-09-03T00:44:11.181Z,10.20
2017-09-03T00:46:37.834Z,11.10
2017-09-03T00:49:04.453Z,10.67
2017-09-03T00:51:31.091Z,14.77
2017-09-03T00:53:57.698Z,13.90
2017-09-03T00:56:24.341Z,7.37
2017-09-03T00:58:50.960Z,7.43
2017-09-03T01:01:17.587Z,7.20
2017-09-03T01:03:44.210Z,8.70
2017-09-03T01:06:10.827Z,7.77
2017-09-03T01:08:37.446Z,8.40
2017-09-03T01:11:04.081Z,7.80
2017-09-03T01:13:30.715Z,12.40
2017-09-03T01:15:57.327Z,7.00
2017-09-03T01:18:23.951Z,6.70
2017-09-03T01:20:50.580Z,5.80
2017-09-03T01:23:17.182Z,6.83
2017-09-03T01:25:43.811Z,6.63
2017-09-03T01:28:10.411Z,6.13
2017-09-03T01:30:37.037Z,8.53
2017-09-03T01:33:03.646Z,10.17
2017-09-03T01:35:30.251Z,9.77
2017-09-03T01:37:56.894Z,7.10
2017-09-03T01:40:23.518Z,6.90
2017-09-03T01:42:50.146Z,7.07
2017-09-03T01:45:16.763Z,6.67
2017-09-03T01:47:43.415Z,5.57
2017-09-03T01:50:10.039Z,8.63
2017-09-03T01:52:36.680Z,7.22
2017-09-03T01:55:03.321Z,8.30
2017-09-03T01:57:29.961Z,9.90
2017-09-03T01:59:56.619Z,9.68
2017-09-03T02:02:23.230Z,6.30
2017-09-03T02:04:49.858Z,6.97
2017-09-03T02:07:16.486Z,7.13
2017-09-03T02:09:43.111Z,7.62
2017-09-03T02:12:09.750Z,8.27
2017-09-03T02:14:36.381Z,9.52
2017-09-03T02:17:03.040Z,8.68
2017-09-03T02:19:29.659Z,7.18
2017-09-03T02:21:56.323Z,10.65
2017-09-03T02:24:22.932Z,7.87
2017-09-03T02:26:49.575Z,8.52
2017-09-03T02:29:16.226Z,7.05
2017-09-03T02:31:42.868Z,8.60
2017-09-03T02:34:09.513Z,8.35
2017-09-03T02:36:36.131Z,8.95
2017-09-03T02:39:02.778Z,9.27
2017-09-03T02:41:29.390Z,6.87
2017-09-03T02:43:56.021Z,6.93
2017-09-03T02:46:22.626Z,5.93
2017-09-03T02:48:49.278Z,8.40
2017-09-03T02:51:15.895Z,7.70
2017-09-03T02:53:42.514Z,8.47
2017-09-03T02:56:09.160Z,6.53
2017-09-03T02:58:35.799Z,9.00
2017-09-03T03:01:02.434Z,5.10
2017-09-03T03:03:29.062Z,8.02
2017-09-03T03:05:55.675Z,9.50
2017-09-03T03:08:22.309Z,11.88
2017-09-03T03:10:48.971Z,11.10
2017-09-03T03:13:15.635Z,6.65
2017-09-03T03:15:42.270Z,5.95
2017-09-03T03:18:08.886Z,6.93
2017-09-03T03:20:35.535Z,8.25
2017-09-03T03:23:02.151Z,8.70
2017-09-03T03:25:28.770Z,7.90
2017-09-03T03:27:55.419Z,7.70
2017-09-03T03:30:22.040Z,10.93
2017-09-03T03:32:48.654Z,9.27
2017-09-03T03:35:15.295Z,6.80
2017-09-03T03:37:41.949Z,5.97
2017-09-03T03:40:08.590Z,6.80
2017-09-03T03:42:35.215Z,7.80
2017-09-03T03:45:01.872Z,10.07
2017-09-03T03:47:28.500Z,8.57
2017-09-03T03:49:55.140Z,9.32
2017-09-03T03:52:21.782Z,9.43
2017-09-03T03:54:48.391Z,9.88
2017-09-03T03:57:15.124Z,7.60
2017-09-03T03:59:41.828Z,5.72
2017-09-03T04:02:08.467Z,7.15
2017-09-03T04:04:35.090Z,6.60
2017-09-03T04:07:01.715Z,7.95
2017-09-03T04:09:28.366Z,6.43
2017-09-03T04:11:54.994Z,5.45
2017-09-03T04:14:21.634Z,6.68
2017-09-03T04:16:48.245Z,5.95
2017-09-03T04:19:14.878Z,7.95
2017-09-03T04:21:41.481Z,7.00
2017-09-03T04:24:08.132Z,8.18
2017-09-03T04:26:34.763Z,11.10
2017-09-03T04:29:01.383Z,9.80
2017-09-03T04:31:28.036Z,13.82
2017-09-03T04:33:54.664Z,9.68
2017-09-03T04:36:21.307Z,17.70
2017-09-03T04:38:47.968Z,11.68
2017-09-03T04:41:14.598Z,12.70
2017-09-03T04:43:41.243Z,18.87
2017-09-03T04:46:07.862Z,13.97
2017-09-03T04:48:34.520Z,13.65
2017-09-03T04:51:01.158Z,14.13
2017-09-03T04:53:27.763Z,15.40
2017-09-03T04:55:54.393Z,14.87
2017-09-03T04:58:21.048Z,14.45
2017-09-03T05:00:47.681Z,16.30
2017-09-03T05:03:14.327Z,13.05
2017-09-03T05:05:40.969Z,6.63
2017-09-03T05:08:07.611Z,7.57
2017-09-03T05:10:34.254Z,10.60
2017-09-03T05:13:00.874Z,12.40
2017-09-03T05:15:27.500Z,9.90
2017-09-03T05:17:54.166Z,10.60
2017-09-03T05:20:20.783Z,11.80
2017-09-03T05:22:47.414Z,12.27
2017-09-03T05:25:14.052Z,14.90
2017-09-03T05:27:40.709Z,21.87
2017-09-03T05:30:07.334Z,16.15
2017-09-03T05:32:33.949Z,21.50
2017-09-03T05:35:00.579Z,20.40
2017-09-03T05:37:27.217Z,19.73
2017-09-03T05:39:53.860Z,16.83
2017-09-03T05:42:20.497Z,19.93
2017-09-03T05:44:47.105Z,20.60
2017-09-03T05:47:13.758Z,18.10
2017-09-03T05:49:40.391Z,21.60
2017-09-03T05:52:07.015Z,21.97
2017-09-03T05:54:33.628Z,19.27
2017-09-03T05:57:00.275Z,19.50
2017-09-03T05:59:26.891Z,24.17
2017-09-03T06:01:53.511Z,25.77
2017-09-03T06:04:20.159Z,20.87
2017-09-03T06:06:46.791Z,20.93
2017-09-03T06:09:13.443Z,22.80
2017-09-03T06:11:40.067Z,26.73
2017-09-03T06:14:06.701Z,28.53
2017-09-03T06:16:33.318Z,20.30
2017-09-03T06:18:59.932Z,21.33
2017-09-03T06:21:26.594Z,19.00
2017-09-03T06:23:53.201Z,19.17
2017-09-03T06:26:19.838Z,21.30
2017-09-03T06:28:46.468Z,22.87
2017-09-03T06:31:13.111Z,24.40
2017-09-03T06:33:39.740Z,20.03
2017-09-03T06:36:06.390Z,22.80
2017-09-03T06:38:33.035Z,21.37
2017-09-03T06:40:59.678Z,24.50
2017-09-03T06:43:26.323Z,21.87
2017-09-03T06:45:52.945Z,20.87
2017-09-03T06:48:19.556Z,26.17
2017-09-03T06:50:46.192Z,24.17
2017-09-03T06:53:12.843Z,29.23
2017-09-03T06:55:39.465Z,21.80
2017-09-03T06:58:06.097Z,23.70
2017-09-03T07:00:32.722Z,26.40
2017-09-03T07:02:59.355Z,29.90
2017-09-03T07:05:26.031Z,23.00
2017-09-03T07:07:52.664Z,27.53
2017-09-03T07:10:19.303Z,31.03
2017-09-03T07:12:45.927Z,30.57
2017-09-03T07:15:12.572Z,29.90
2017-09-03T07:17:39.208Z,31.17
2017-09-03T07:20:05.829Z,30.33
2017-09-03T07:22:32.474Z,31.80
2017-09-03T07:24:59.087Z,29.47
2017-09-03T07:27:25.751Z,25.00
2017-09-03T07:29:52.373Z,24.90
2017-09-03T07:32:19.002Z,23.07
2017-09-03T07:34:45.647Z,25.80
2017-09-03T07:37:12.314Z,27.57
2017-09-03T07:39:38.959Z,29.67
2017-09-03T07:42:05.591Z,31.40
2017-09-03T07:44:32.230Z,29.77
2017-09-03T07:46:58.859Z,25.57
2017-09-03T07:49:25.494Z,25.77
2017-09-03T07:51:52.123Z,25.43
2017-09-03T07:54:18.776Z,29.80
2017-09-03T07:56:45.412Z,31.30
2017-09-03T07:59:12.039Z,27.33
2017-09-03T08:01:38.684Z,26.43
2017-09-03T08:04:05.312Z,28.67
2017-09-03T08:06:31.971Z,30.13
2017-09-03T08:08:59.147Z,27.63
2017-09-03T08:11:25.799Z,31.17
2017-09-03T08:13:52.418Z,32.03
2017-09-03T08:16:19.041Z,32.73
2017-09-03T08:18:45.684Z,32.20
2017-09-03T08:21:12.327Z,31.23
2017-09-03T08:23:38.971Z,34.93
2017-09-03T08:26:05.608Z,33.07
2017-09-03T08:28:32.230Z,33.80
2017-09-03T08:30:58.895Z,30.27
2017-09-03T08:33:25.509Z,31.03
2017-09-03T08:35:52.171Z,29.67
2017-09-03T08:38:18.788Z,31.27
2017-09-03T08:40:45.419Z,27.70
2017-09-03T08:43:12.043Z,29.13
2017-09-03T08:45:38.680Z,29.27
2017-09-03T08:48:05.315Z,28.87
2017-09-03T08:50:31.960Z,25.20
2017-09-03T08:52:58.575Z,25.77
2017-09-03T08:55:25.245Z,25.73
2017-09-03T08:57:51.884Z,26.80
2017-09-03T09:00:18.512Z,31.47
2017-09-03T09:02:45.133Z,25.27
2017-09-03T09:05:11.774Z,33.90
2017-09-03T09:07:38.395Z,26.27
2017-09-03T09:10:05.026Z,30.20
2017-09-03T09:12:31.682Z,26.57
2017-09-03T09:14:58.298Z,30.87
2017-09-03T09:17:24.943Z,24.17
2017-09-03T09:19:51.575Z,27.90
2017-09-03T09:22:18.194Z,26.13
2017-09-03T09:24:44.835Z,25.07
2017-09-03T09:27:11.496Z,25.57
2017-09-03T09:29:38.138Z,29.17
2017-09-03T09:32:04.775Z,25.87
2017-09-03T09:34:31.427Z,28.90
2017-09-03T09:36:58.049Z,25.83
2017-09-03T09:39:24.670Z,26.80
2017-09-03T09:41:51.308Z,26.87
2017-09-03T09:44:17.959Z,22.20
2017-09-03T09:46:44.623Z,23.20
2017-09-03T09:49:11.246Z,21.73
2017-09-03T09:51:37.941Z,25.53
2017-09-03T09:54:04.576Z,20.20
2017-09-03T09:56:31.223Z,23.17
2017-09-03T09:58:57.889Z,21.53
2017-09-03T10:01:24.490Z,20.10
2017-09-03T10:03:51.134Z,22.60
2017-09-03T10:06:17.782Z,18.57
2017-09-03T10:08:44.435Z,20.93
2017-09-03T10:11:11.071Z,22.50
2017-09-03T10:13:37.720Z,22.30
2017-09-03T10:16:04.350Z,14.23
2017-09-03T10:18:31.008Z,17.93
2017-09-03T10:20:57.636Z,11.67
2017-09-03T10:23:24.298Z,11.60
2017-09-03T10:25:50.914Z,12.03
2017-09-03T10:28:17.564Z,11.73
2017-09-03T10:30:44.180Z,9.40
2017-09-03T10:33:10.829Z,18.77
2017-09-03T10:35:37.470Z,14.90
2017-09-03T10:38:04.104Z,17.00
2017-09-03T10:40:30.760Z,19.70
2017-09-03T10:42:57.400Z,17.57
2017-09-03T10:45:24.051Z,16.60
2017-09-03T10:47:50.662Z,21.07
2017-09-03T10:50:17.297Z,16.97
2017-09-03T10:52:43.930Z,19.00
2017-09-03T10:55:10.558Z,16.73
2017-09-03T10:57:37.193Z,17.63
2017-09-03T11:00:03.860Z,13.00
2017-09-03T11:02:30.507Z,13.63
2017-09-03T11:04:57.135Z,11.10
2017-09-03T11:07:23.788Z,14.23
2017-09-03T11:09:50.444Z,14.63
2017-09-03T11:12:17.059Z,17.47
2017-09-03T11:14:43.715Z,13.10
2017-09-03T11:17:10.335Z,11.17
2017-09-03T11:19:36.985Z,13.10
2017-09-03T11:22:03.608Z,10.47
2017-09-03T11:24:31.866Z,6.53
2017-09-03T11:26:58.501Z,9.53
2017-09-03T11:29:25.132Z,10.80
2017-09-03T11:31:51.742Z,14.80
2017-09-03T11:34:18.382Z,10.93
2017-09-03T11:36:46.194Z,15.73
2017-09-03T11:39:12.815Z,16.33
2017-09-03T11:41:39.658Z,9.93
2017-09-03T11:44:06.294Z,8.70
2017-09-03T11:46:32.961Z,9.20
2017-09-03T11:48:59.608Z,10.53
2017-09-03T11:51:26.264Z,6.70
2017-09-03T11:53:52.955Z,11.10
2017-09-03T11:56:19.588Z,12.80
2017-09-03T11:58:46.254Z,14.07
2017-09-03T12:01:12.918Z,11.37
2017-09-03T12:03:39.543Z,11.40
2017-09-03T12:06:07.036Z,8.67
2017-09-03T12:08:33.687Z,9.97
2017-09-03T12:11:00.307Z,9.50
2017-09-03T12:13:27.078Z,6.40
2017-09-03T12:15:53.690Z,7.40
2017-09-03T12:18:20.311Z,7.53
2017-09-03T12:20:46.945Z,9.63
2017-09-03T12:23:13.583Z,6.80
2017-09-03T12:25:40.219Z,7.43
2017-09-03T12:28:06.825Z,9.80
2017-09-03T12:30:33.448Z,5.57
2017-09-03T12:33:00.186Z,7.43
2017-09-03T12:35:26.815Z,8.27
2017-09-03T12:37:53.496Z,9.60
2017-09-03T12:40:20.164Z,8.07
2017-09-03T12:42:46.800Z,9.10
2017-09-03T12:45:13.439Z,9.90
2017-09-03T12:47:40.099Z,10.00
2017-09-03T12:50:06.726Z,8.70
2017-09-03T12:52:33.355Z,6.10
2017-09-03T12:54:59.980Z,7.40
2017-09-03T12:57:26.602Z,14.50
2017-09-03T12:59:53.236Z,7.73
2017-09-03T13:02:19.876Z,8.17
2017-09-03T13:04:46.491Z,6.93
2017-09-03T13:07:13.133Z,6.40
2017-09-03T13:09:39.744Z,7.77
2017-09-03T13:12:06.386Z,7.60
2017-09-03T13:14:32.999Z,5.83
2017-09-03T13:16:59.629Z,7.73
2017-09-03T13:19:26.277Z,9.00
2017-09-03T13:21:52.887Z,7.27
2017-09-03T13:24:19.527Z,10.40
2017-09-03T13:26:46.262Z,5.77
2017-09-03T13:29:12.917Z,8.97
2017-09-03T13:31:39.522Z,3.90
2017-09-03T13:34:06.154Z,6.00
2017-09-03T13:36:32.779Z,7.47
2017-09-03T13:38:59.421Z,4.97
2017-09-03T13:41:26.636Z,6.50
2017-09-03T13:43:53.258Z,6.67
2017-09-03T13:46:19.894Z,10.87
2017-09-03T13:48:46.521Z,4.63
2017-09-03T13:51:13.182Z,10.63
2017-09-03T13:53:39.819Z,8.47
2017-09-03T13:56:06.450Z,5.33
2017-09-03T13:58:33.075Z,7.00
2017-09-03T14:00:59.716Z,8.53
2017-09-03T14:03:26.366Z,4.60
2017-09-03T14:05:53.016Z,5.77
2017-09-03T14:08:19.626Z,6.60
2017-09-03T14:10:46.278Z,4.73
2017-09-03T14:13:12.903Z,12.93
2017-09-03T14:15:39.524Z,2.40
2017-09-03T14:18:06.151Z,3.50
2017-09-03T14:20:32.766Z,4.20
2017-09-03T14:22:59.413Z,3.30
2017-09-03T14:25:26.023Z,3.77
2017-09-03T14:27:52.657Z,4.50
2017-09-03T14:30:19.278Z,3.23
2017-09-03T14:32:45.892Z,5.00
2017-09-03T14:35:12.539Z,2.90
2017-09-03T14:37:39.156Z,2.73
2017-09-03T14:40:05.787Z,3.50
2017-09-03T14:42:32.420Z,3.30
2017-09-03T14:44:59.044Z,5.73
2017-09-03T14:47:25.687Z,3.30
2017-09-03T14:49:52.324Z,5.20
2017-09-03T14:52:18.951Z,4.20
2017-09-03T14:54:45.561Z,3.60
2017-09-03T14:57:12.239Z,4.03
2017-09-03T14:59:38.867Z,3.27
2017-09-03T15:02:05.511Z,3.80
2017-09-03T15:04:32.155Z,3.30
2017-09-03T15:06:58.780Z,3.60
2017-09-03T15:09:25.425Z,3.93
2017-09-03T15:11:52.035Z,4.40
2017-09-03T15:14:18.684Z,4.03
2017-09-03T15:16:45.328Z,3.33
2017-09-03T15:19:11.936Z,4.63
2017-09-03T15:21:38.607Z,2.90
2017-09-03T15:24:05.224Z,2.83
2017-09-03T15:26:31.862Z,4.70
2017-09-03T15:28:58.473Z,3.47
2017-09-03T15:31:25.096Z,3.70
2017-09-03T15:33:51.718Z,4.43
2017-09-03T15:36:18.345Z,4.47
2017-09-03T15:38:45.002Z,7.27
2017-09-03T15:41:11.623Z,3.83
2017-09-03T15:43:38.260Z,4.30
2017-09-03T15:46:04.877Z,6.50
2017-09-03T15:48:31.515Z,3.63
2017-09-03T15:50:58.132Z,3.90
2017-09-03T15:53:24.778Z,2.87
2017-09-03T15:55:51.395Z,4.13
2017-09-03T15:58:18.040Z,4.43
2017-09-03T16:00:44.640Z,5.87
2017-09-03T16:03:11.308Z,8.40
2017-09-03T16:05:37.948Z,3.70
2017-09-03T16:08:04.592Z,4.07
2017-09-03T16:10:31.212Z,3.80
2017-09-03T16:12:57.859Z,6.60
2017-09-03T16:15:24.473Z,3.57
2017-09-03T16:17:51.119Z,7.07
2017-09-03T16:20:17.761Z,4.13
2017-09-03T16:22:44.402Z,4.20
2017-09-03T16:25:11.057Z,3.93
2017-09-03T16:27:37.661Z,9.90
2017-09-03T16:30:04.283Z,4.77
2017-09-03T16:32:30.916Z,4.30
2017-09-03T16:34:57.524Z,3.93
2017-09-03T16:37:24.166Z,3.37
2017-09-03T16:39:50.797Z,6.10
2017-09-03T16:42:17.416Z,7.90
2017-09-03T16:44:44.077Z,6.63
2017-09-03T16:47:10.717Z,4.70
2017-09-03T16:49:37.328Z,5.20
2017-09-03T16:52:03.952Z,3.13
2017-09-03T16:54:30.592Z,6.73
2017-09-03T16:56:57.231Z,3.07
2017-09-03T16:59:23.873Z,4.77
2017-09-03T17:01:50.512Z,4.90
2017-09-03T17:04:17.161Z,5.03
2017-09-03T17:06:43.809Z,3.87
2017-09-03T17:09:10.429Z,4.90
2017-09-03T17:11:37.358Z,4.63
2017-09-03T17:14:03.995Z,4.33
2017-09-03T17:16:30.618Z,6.07
2017-09-03T17:18:57.271Z,3.87
2017-09-03T17:21:23.879Z,5.00
2017-09-03T17:23:50.499Z,4.10
2017-09-03T17:26:17.185Z,5.77
2017-09-03T17:28:43.797Z,4.37
2017-09-03T17:31:16.335Z,5.30
2017-09-03T17:33:42.970Z,4.97
2017-09-03T17:36:09.619Z,4.87
2017-09-03T17:38:41.289Z,5.50
2017-09-03T17:41:08.908Z,4.77
2017-09-03T17:43:37.374Z,5.27
2017-09-03T17:46:07.850Z,4.53
2017-09-03T17:48:34.495Z,3.97
2017-09-03T17:51:01.097Z,6.87
2017-09-03T17:53:27.788Z,6.10
2017-09-03T17:55:54.413Z,4.93
2017-09-03T17:58:21.090Z,4.63
2017-09-03T18:00:47.729Z,5.60
2017-09-03T18:03:14.375Z,5.43
2017-09-03T18:05:41.032Z,5.83
2017-09-03T18:08:07.639Z,9.53
2017-09-03T18:10:34.318Z,6.27
2017-09-03T18:13:00.951Z,5.87
2017-09-03T18:15:27.599Z,8.43
2017-09-03T18:17:54.250Z,10.80
2017-09-03T18:20:20.896Z,9.50
2017-09-03T18:22:47.556Z,8.43
2017-09-03T18:25:14.180Z,8.10
2017-09-03T18:27:40.827Z,7.73
2017-09-03T18:30:18.050Z,7.43
2017-09-03T18:32:44.678Z,8.50
2017-09-03T18:35:11.335Z,7.93
2017-09-03T18:37:39.644Z,6.43
2017-09-03T18:40:06.300Z,8.13
2017-09-03T18:42:32.941Z,6.60
2017-09-03T18:44:59.579Z,10.00
2017-09-03T18:47:26.221Z,6.00
2017-09-03T18:49:53.430Z,7.70
2017-09-03T18:52:34.823Z,6.87
2017-09-03T18:55:01.471Z,6.90
2017-09-03T18:57:29.596Z,7.93
2017-09-03T18:59:58.900Z,9.13
2017-09-03T19:02:25.556Z,10.00
2017-09-03T19:04:52.902Z,6.97
2017-09-03T19:07:19.502Z,8.83
2017-09-03T19:09:46.135Z,8.90
2017-09-03T19:12:12.829Z,7.73
2017-09-03T19:14:39.458Z,11.50
2017-09-03T19:17:06.108Z,11.30
2017-09-03T19:19:32.758Z,10.20
2017-09-03T19:21:59.416Z,10.63
2017-09-03T19:24:26.067Z,8.80
2017-09-03T19:26:52.728Z,13.60
2017-09-03T19:29:19.369Z,12.50
2017-09-03T19:31:46.020Z,12.07
2017-09-03T19:34:12.676Z,9.83
2017-09-03T19:36:40.047Z,12.43
2017-09-03T19:39:06.699Z,11.57
2017-09-03T19:41:33.416Z,10.83
2017-09-03T19:44:00.024Z,8.93
2017-09-03T19:46:26.695Z,10.87
2017-09-03T19:48:53.338Z,12.93
2017-09-03T19:51:19.987Z,9.43
2017-09-03T19:53:46.603Z,9.50
2017-09-03T19:56:13.246Z,10.47
2017-09-03T19:58:39.898Z,12.73
2017-09-03T20:01:06.535Z,11.00
2017-09-03T20:03:33.179Z,9.70
2017-09-03T20:05:59.786Z,10.10
2017-09-03T20:08:26.420Z,10.80
2017-09-03T20:10:53.058Z,9.70
2017-09-03T20:13:19.681Z,10.20
2017-09-03T20:15:46.302Z,11.53
2017-09-03T20:18:12.962Z,11.63
2017-09-03T20:20:39.585Z,11.00
2017-09-03T20:23:06.243Z,10.73
2017-09-03T20:25:32.861Z,14.03
2017-09-03T20:27:59.515Z,10.37
2017-09-03T20:30:26.131Z,10.23
2017-09-03T20:32:52.753Z,11.27
2017-09-03T20:35:19.395Z,10.37
2017-09-03T20:37:46.006Z,10.83
2017-09-03T20:40:12.666Z,11.40
2017-09-03T20:42:39.297Z,11.70
2017-09-03T20:45:05.923Z,9.47
2017-09-03T20:47:32.561Z,10.07
2017-09-03T20:49:59.199Z,11.63
2017-09-03T20:52:25.871Z,9.17
2017-09-03T20:54:52.500Z,11.10
2017-09-03T20:57:19.140Z,10.00
2017-09-03T20:59:45.777Z,9.67
2017-09-03T21:02:12.413Z,10.70
2017-09-03T21:04:39.054Z,8.77
2017-09-03T21:07:05.679Z,8.93
2017-09-03T21:09:32.340Z,9.40
2017-09-03T21:11:58.947Z,8.90
2017-09-03T21:14:25.586Z,9.67
2017-09-03T21:16:52.223Z,7.97
2017-09-03T21:19:18.853Z,9.47
2017-09-03T21:21:45.455Z,9.10
2017-09-03T21:24:12.119Z,9.83
2017-09-03T21:26:38.734Z,10.33
2017-09-03T21:29:05.371Z,9.63
2017-09-03T21:31:31.978Z,9.40
2017-09-03T21:33:58.635Z,10.17
2017-09-03T21:36:25.263Z,9.10
2017-09-03T21:38:51.906Z,9.80
2017-09-03T21:41:18.534Z,10.20
2017-09-03T21:43:45.158Z,8.80
2017-09-03T21:46:11.795Z,9.67
2017-09-03T21:48:38.432Z,8.93
2017-09-03T21:51:05.078Z,9.33
2017-09-03T21:53:31.723Z,13.70
2017-09-03T21:55:58.339Z,9.20
2017-09-03T21:58:24.995Z,8.30
2017-09-03T22:00:51.611Z,10.40
2017-09-03T22:03:18.247Z,15.43
2017-09-03T22:05:44.880Z,9.50
2017-09-03T22:08:11.534Z,9.43
2017-09-03T22:10:38.168Z,9.63
2017-09-03T22:13:04.832Z,16.40
2017-09-03T22:15:31.449Z,12.60
2017-09-03T22:17:58.057Z,9.77
2017-09-03T22:20:24.685Z,13.87
2017-09-03T22:22:51.308Z,10.30
2017-09-03T22:25:17.951Z,9.40
2017-09-03T22:27:44.615Z,10.17
2017-09-03T22:30:11.260Z,9.07
2017-09-03T22:32:37.875Z,11.37
2017-09-03T22:35:04.501Z,10.63
2017-09-03T22:37:31.117Z,10.13
2017-09-03T22:39:57.719Z,10.93
2017-09-03T22:42:24.358Z,10.50
2017-09-03T22:44:50.974Z,8.80
2017-09-03T22:47:17.622Z,11.10
2017-09-03T22:49:44.232Z,8.93
2017-09-03T22:52:10.849Z,10.43
2017-09-03T22:54:37.475Z,9.80
2017-09-03T22:57:04.087Z,9.10
2017-09-03T22:59:30.722Z,11.03
2017-09-03T23:01:57.376Z,9.80
2017-09-03T23:04:24.008Z,12.20
2017-09-03T23:06:50.646Z,10.77
2017-09-03T23:09:17.277Z,9.60
2017-09-03T23:11:43.899Z,8.40
2017-09-03T23:14:10.517Z,9.93
2017-09-03T23:16:37.160Z,11.00
2017-09-03T23:19:03.779Z,9.03
2017-09-03T23:21:30.386Z,8.70
2017-09-03T23:23:57.003Z,9.97
2017-09-03T23:26:23.640Z,7.50
2017-09-03T23:28:50.267Z,8.67
2017-09-03T23:31:16.887Z,8.50
2017-09-03T23:33:43.535Z,9.30
2017-09-03T23:36:10.150Z,9.53
2017-09-03T23:38:36.804Z,12.20
2017-09-03T23:41:03.421Z,8.83
2017-09-03T23:43:30.059Z,10.43
2017-09-03T23:45:56.686Z,9.63
2017-09-03T23:48:23.290Z,8.23
2017-09-03T23:50:49.914Z,10.70
2017-09-03T23:53:16.514Z,9.37
2017-09-03T23:55:43.155Z,10.10
2017-09-03T23:58:09.764Z,10.63
